sensor_id;sensor_type;location;lat;lon;timestamp;pressure;altitude;pressure_sealevel;temperature;humidity
83551;BME280;74617;47.082;15.524;2024-02-04T00:01:35;97169.31;;;20.23;37.88
83551;BME280;74617;47.082;15.524;2024-02-04T00:04:00;97171.75;;;20.25;37.71
83551;BME280;74617;47.082;15.524;2024-02-04T00:06:25;97180.25;;;20.23;37.88
83551;BME280;74617;47.082;15.524;2024-02-04T00:08:51;97162.28;;;20.22;37.84
83551;BME280;74617;47.082;15.524;2024-02-04T00:11:16;97156.47;;;20.23;37.89
83551;BME280;74617;47.082;15.524;2024-02-04T00:13:42;97173.97;;;20.22;37.83
83551;BME280;74617;47.082;15.524;2024-02-04T00:16:07;97153.75;;;20.23;37.94
83551;BME280;74617;47.082;15.524;2024-02-04T00:18:32;97156.81;;;20.22;37.98
83551;BME280;74617;47.082;15.524;2024-02-04T00:20:58;97160.34;;;20.22;37.54
83551;BME280;74617;47.082;15.524;2024-02-04T00:23:23;97164.66;;;20.23;37.88
83551;BME280;74617;47.082;15.524;2024-02-04T00:25:49;97156.00;;;20.21;38.39
83551;BME280;74617;47.082;15.524;2024-02-04T00:28:14;97161.47;;;20.21;38.08
83551;BME280;74617;47.082;15.524;2024-02-04T00:30:39;97158.75;;;20.21;38.17
83551;BME280;74617;47.082;15.524;2024-02-04T00:33:05;97141.91;;;20.19;37.86
83551;BME280;74617;47.082;15.524;2024-02-04T00:35:30;97150.09;;;20.19;38.25
83551;BME280;74617;47.082;15.524;2024-02-04T00:37:56;97157.47;;;20.19;38.30
83551;BME280;74617;47.082;15.524;2024-02-04T00:40:22;97151.22;;;20.18;38.00
83551;BME280;74617;47.082;15.524;2024-02-04T00:42:48;97163.25;;;20.17;38.14
83551;BME280;74617;47.082;15.524;2024-02-04T00:45:13;97153.16;;;20.18;37.90
83551;BME280;74617;47.082;15.524;2024-02-04T00:47:38;97165.97;;;20.17;38.23
83551;BME280;74617;47.082;15.524;2024-02-04T00:50:04;97162.44;;;20.17;37.97
83551;BME280;74617;47.082;15.524;2024-02-04T00:52:30;97164.72;;;20.15;38.37
83551;BME280;74617;47.082;15.524;2024-02-04T00:54:55;97153.00;;;20.14;38.20
83551;BME280;74617;47.082;15.524;2024-02-04T00:57:20;97150.25;;;20.14;38.20
83551;BME280;74617;47.082;15.524;2024-02-04T00:59:46;97147.53;;;20.14;38.38
83551;BME280;74617;47.082;15.524;2024-02-04T01:02:11;97138.22;;;20.15;38.19
83551;BME280;74617;47.082;15.524;2024-02-04T01:04:37;97132.31;;;20.13;38.09
83551;BME280;74617;47.082;15.524;2024-02-04T01:07:02;97136.16;;;20.12;38.22
83551;BME280;74617;47.082;15.524;2024-02-04T01:09:28;97135.38;;;20.12;38.11
83551;BME280;74617;47.082;15.524;2024-02-04T01:11:54;97140.81;;;20.12;38.56
83551;BME280;74617;47.082;15.524;2024-02-04T01:14:19;97142.75;;;20.11;38.07
83551;BME280;74617;47.082;15.524;2024-02-04T01:16:44;97143.84;;;20.10;38.28
83551;BME280;74617;47.082;15.524;2024-02-04T01:19:10;97147.72;;;20.09;38.33
83551;BME280;74617;47.082;15.524;2024-02-04T01:21:35;97160.22;;;20.10;38.23
83551;BME280;74617;47.082;15.524;2024-02-04T01:24:00;97153.97;;;20.10;38.39
83551;BME280;74617;47.082;15.524;2024-02-04T01:26:26;97144.97;;;20.09;38.50
83551;BME280;74617;47.082;15.524;2024-02-04T01:28:51;97139.84;;;20.08;38.28
83551;BME280;74617;47.082;15.524;2024-02-04T01:31:16;97140.66;;;20.08;38.18
83551;BME280;74617;47.082;15.524;2024-02-04T01:33:42;97153.81;;;20.06;38.32
83551;BME280;74617;47.082;15.524;2024-02-04T01:36:07;97152.69;;;20.07;38.49
83551;BME280;74617;47.082;15.524;2024-02-04T01:38:33;97144.50;;;20.07;38.34
83551;BME280;74617;47.082;15.524;2024-02-04T01:40:58;97141.78;;;20.07;38.54
83551;BME280;74617;47.082;15.524;2024-02-04T01:43:23;97156.56;;;20.06;38.49
83551;BME280;74617;47.082;15.524;2024-02-04T01:45:50;97160.41;;;20.05;38.41
83551;BME280;74617;47.082;15.524;2024-02-04T01:48:16;97156.88;;;20.05;38.27
83551;BME280;74617;47.082;15.524;2024-02-04T01:50:43;97155.44;;;20.07;38.60
83551;BME280;74617;47.082;15.524;2024-02-04T01:53:09;97153.81;;;20.06;38.49
83551;BME280;74617;47.082;15.524;2024-02-04T01:55:35;97140.19;;;20.06;38.54
83551;BME280;74617;47.082;15.524;2024-02-04T01:58:01;97141.31;;;20.05;38.64
83551;BME280;74617;47.082;15.524;2024-02-04T02:00:27;97143.25;;;20.05;38.42
83551;BME280;74617;47.082;15.524;2024-02-04T02:02:53;97132.00;;;20.06;38.64
83551;BME280;74617;47.082;15.524;2024-02-04T02:05:19;97134.28;;;20.04;38.51
83551;BME280;74617;47.082;15.524;2024-02-04T02:07:44;97145.19;;;20.04;38.28
83551;BME280;74617;47.082;15.524;2024-02-04T02:10:13;97117.41;;;20.02;38.70
83551;BME280;74617;47.082;15.524;2024-02-04T02:12:59;97114.69;;;20.02;38.56
83551;BME280;74617;47.082;15.524;2024-02-04T02:15:29;97118.19;;;20.03;38.72
83551;BME280;74617;47.082;15.524;2024-02-04T02:18:06;97128.66;;;20.01;38.39
83551;BME280;74617;47.082;15.524;2024-02-04T02:23:15;97114.69;;;20.02;38.75
83551;BME280;74617;47.082;15.524;2024-02-04T02:25:46;97113.41;;;20.00;38.83
83551;BME280;74617;47.082;15.524;2024-02-04T02:28:11;97106.84;;;20.01;38.86
83551;BME280;74617;47.082;15.524;2024-02-04T02:30:37;97111.50;;;20.00;38.52
83551;BME280;74617;47.082;15.524;2024-02-04T02:33:03;97118.41;;;19.98;38.64
83551;BME280;74617;47.082;15.524;2024-02-04T02:35:29;97125.13;;;20.00;38.68
83551;BME280;74617;47.082;15.524;2024-02-04T02:38:16;97125.47;;;19.99;38.69
83551;BME280;74617;47.082;15.524;2024-02-04T02:40:51;97121.94;;;19.98;38.38
83551;BME280;74617;47.082;15.524;2024-02-04T02:43:18;97123.88;;;19.98;38.89
83551;BME280;74617;47.082;15.524;2024-02-04T02:45:44;97125.47;;;19.99;38.98
83551;BME280;74617;47.082;15.524;2024-02-04T02:48:11;97108.28;;;19.98;38.80
83551;BME280;74617;47.082;15.524;2024-02-04T02:50:37;97097.38;;;19.98;38.57
83551;BME280;74617;47.082;15.524;2024-02-04T02:53:03;97111.31;;;19.97;38.80
83551;BME280;74617;47.082;15.524;2024-02-04T02:55:29;97104.78;;;19.98;38.50
83551;BME280;74617;47.082;15.524;2024-02-04T02:57:54;97104.28;;;19.95;38.72
83551;BME280;74617;47.082;15.524;2024-02-04T03:00:20;97107.81;;;19.96;38.94
83551;BME280;74617;47.082;15.524;2024-02-04T03:02:45;97123.06;;;19.97;38.72
83551;BME280;74617;47.082;15.524;2024-02-04T03:05:11;97109.44;;;19.97;38.71
83551;BME280;74617;47.082;15.524;2024-02-04T03:07:37;97111.31;;;19.97;38.64
83551;BME280;74617;47.082;15.524;2024-02-04T03:10:02;97118.41;;;19.98;38.62
83551;BME280;74617;47.082;15.524;2024-02-04T03:12:28;97112.16;;;19.97;38.83
83551;BME280;74617;47.082;15.524;2024-02-04T03:14:53;97119.84;;;19.95;38.76
83551;BME280;74617;47.082;15.524;2024-02-04T03:17:19;97117.91;;;19.95;38.72
83551;BME280;74617;47.082;15.524;2024-02-04T03:19:49;97114.38;;;19.95;38.87
83551;BME280;74617;47.082;15.524;2024-02-04T03:22:17;97106.69;;;19.97;39.12
83551;BME280;74617;47.082;15.524;2024-02-04T03:24:42;97098.81;;;19.95;38.78
83551;BME280;74617;47.082;15.524;2024-02-04T03:27:07;97104.28;;;19.95;38.86
83551;BME280;74617;47.082;15.524;2024-02-04T03:29:33;97089.84;;;19.95;38.87
83551;BME280;74617;47.082;15.524;2024-02-04T03:31:58;97096.44;;;19.94;38.91
83551;BME280;74617;47.082;15.524;2024-02-04T03:34:24;97094.16;;;19.96;39.21
83551;BME280;74617;47.082;15.524;2024-02-04T03:36:49;97094.50;;;19.94;38.91
83551;BME280;74617;47.082;15.524;2024-02-04T03:39:14;97079.25;;;19.93;39.06
83551;BME280;74617;47.082;15.524;2024-02-04T03:41:40;97081.19;;;19.93;38.88
83551;BME280;74617;47.082;15.524;2024-02-04T03:44:05;97090.19;;;19.93;39.12
83551;BME280;74617;47.082;15.524;2024-02-04T03:46:31;97087.78;;;19.92;39.07
83551;BME280;74617;47.082;15.524;2024-02-04T03:48:56;97080.72;;;19.91;39.06
83551;BME280;74617;47.082;15.524;2024-02-04T03:51:22;97091.94;;;19.89;39.18
83551;BME280;74617;47.082;15.524;2024-02-04T03:53:48;97074.16;;;19.92;38.83
83551;BME280;74617;47.082;15.524;2024-02-04T03:56:14;97086.19;;;19.91;38.91
83551;BME280;74617;47.082;15.524;2024-02-04T03:58:39;97080.72;;;19.91;39.31
83551;BME280;74617;47.082;15.524;2024-02-04T04:01:05;97085.38;;;19.90;39.11
83551;BME280;74617;47.082;15.524;2024-02-04T04:03:30;97086.03;;;19.87;39.11
83551;BME280;74617;47.082;15.524;2024-02-04T04:05:55;97097.72;;;19.88;39.25
83551;BME280;74617;47.082;15.524;2024-02-04T04:08:21;97102.06;;;19.89;39.03
83551;BME280;74617;47.082;15.524;2024-02-04T04:10:46;97097.72;;;19.88;38.86
83551;BME280;74617;47.082;15.524;2024-02-04T04:13:13;97087.94;;;19.87;39.00
83551;BME280;74617;47.082;15.524;2024-02-04T04:15:39;97094.19;;;19.87;39.21
83551;BME280;74617;47.082;15.524;2024-02-04T04:18:04;97096.78;;;19.84;39.21
83551;BME280;74617;47.082;15.524;2024-02-04T04:20:30;97098.06;;;19.86;39.06
83551;BME280;74617;47.082;15.524;2024-02-04T04:22:55;97089.09;;;19.86;39.03
83551;BME280;74617;47.082;15.524;2024-02-04T04:25:21;97105.44;;;19.86;39.11
83551;BME280;74617;47.082;15.524;2024-02-04T04:27:46;97115.56;;;19.85;39.42
83551;BME280;74617;47.082;15.524;2024-02-04T04:30:11;97108.16;;;19.86;39.15
83551;BME280;74617;47.082;15.524;2024-02-04T04:32:37;97110.44;;;19.84;39.18
83551;BME280;74617;47.082;15.524;2024-02-04T04:35:02;97108.16;;;19.86;39.32
83551;BME280;74617;47.082;15.524;2024-02-04T04:37:28;97106.91;;;19.83;39.13
83551;BME280;74617;47.082;15.524;2024-02-04T04:39:53;97106.91;;;19.83;39.12
83551;BME280;74617;47.082;15.524;2024-02-04T04:42:19;97113.16;;;19.84;39.25
83551;BME280;74617;47.082;15.524;2024-02-04T04:44:44;97112.81;;;19.85;39.05
83551;BME280;74617;47.082;15.524;2024-02-04T04:47:09;97110.09;;;19.85;39.21
83551;BME280;74617;47.082;15.524;2024-02-04T04:49:35;97096.00;;;19.83;39.15
83551;BME280;74617;47.082;15.524;2024-02-04T04:52:00;97096.00;;;19.83;39.23
83551;BME280;74617;47.082;15.524;2024-02-04T04:54:27;97101.44;;;19.83;39.51
83551;BME280;74617;47.082;15.524;2024-02-04T04:56:53;97104.31;;;19.87;39.28
83551;BME280;74617;47.082;15.524;2024-02-04T04:59:18;97096.78;;;19.84;39.39
83551;BME280;74617;47.082;15.524;2024-02-04T05:01:47;97104.47;;;19.82;39.46
83551;BME280;74617;47.082;15.524;2024-02-04T05:04:13;97107.53;;;19.80;39.36
83551;BME280;74617;47.082;15.524;2024-02-04T05:06:39;97113.47;;;19.82;39.47
83551;BME280;74617;47.082;15.524;2024-02-04T05:09:05;97115.38;;;19.82;39.10
83551;BME280;74617;47.082;15.524;2024-02-04T05:11:30;97113.47;;;19.82;39.41
83551;BME280;74617;47.082;15.524;2024-02-04T05:13:56;97116.19;;;19.82;39.23
83551;BME280;74617;47.082;15.524;2024-02-04T05:16:21;97115.38;;;19.82;39.29
83551;BME280;74617;47.082;15.524;2024-02-04T05:18:47;97124.69;;;19.81;39.34
83551;BME280;74617;47.082;15.524;2024-02-04T05:21:12;97125.50;;;19.81;39.19
83551;BME280;74617;47.082;15.524;2024-02-04T05:23:37;97126.28;;;19.82;39.09
83551;BME280;74617;47.082;15.524;2024-02-04T05:26:03;97122.31;;;19.79;39.36
83551;BME280;74617;47.082;15.524;2024-02-04T05:28:30;97117.19;;;19.78;39.16
83551;BME280;74617;47.082;15.524;2024-02-04T05:30:55;97113.31;;;19.79;39.01
83551;BME280;74617;47.082;15.524;2024-02-04T05:33:20;97108.22;;;19.77;39.05
83551;BME280;74617;47.082;15.524;2024-02-04T05:35:46;97110.59;;;19.79;39.29
83551;BME280;74617;47.082;15.524;2024-02-04T05:38:11;97089.25;;;19.81;39.30
83551;BME280;74617;47.082;15.524;2024-02-04T05:40:36;97098.72;;;19.83;39.16
83551;BME280;74617;47.082;15.524;2024-02-04T05:43:02;97108.50;;;19.84;39.30
83551;BME280;74617;47.082;15.524;2024-02-04T05:45:33;97117.94;;;19.87;39.19
83551;BME280;74617;47.082;15.524;2024-02-04T05:47:58;97117.28;;;19.90;39.29
83551;BME280;74617;47.082;15.524;2024-02-04T05:50:24;97123.22;;;19.92;39.02
83551;BME280;74617;47.082;15.524;2024-02-04T05:52:49;97133.00;;;19.93;39.19
83551;BME280;74617;47.082;15.524;2024-02-04T05:55:15;97127.56;;;19.93;39.09
83551;BME280;74617;47.082;15.524;2024-02-04T05:57:40;97129.94;;;19.94;39.23
83551;BME280;74617;47.082;15.524;2024-02-04T06:00:07;97123.38;;;19.95;39.02
83551;BME280;74617;47.082;15.524;2024-02-04T06:02:33;97115.97;;;19.96;39.24
83551;BME280;74617;47.082;15.524;2024-02-04T06:04:58;97123.06;;;19.97;39.08
83551;BME280;74617;47.082;15.524;2024-02-04T06:07:24;97137.16;;;19.99;38.92
83551;BME280;74617;47.082;15.524;2024-02-04T06:09:49;97132.19;;;20.01;39.03
83551;BME280;74617;47.082;15.524;2024-02-04T06:12:14;97105.38;;;20.03;39.28
83551;BME280;74617;47.082;15.524;2024-02-04T06:14:40;97138.59;;;20.05;38.70
83551;BME280;74617;47.082;15.524;2024-02-04T06:17:06;97151.44;;;20.05;38.90
83551;BME280;74617;47.082;15.524;2024-02-04T06:19:36;97135.88;;;20.05;39.22
83551;BME280;74617;47.082;15.524;2024-02-04T06:22:02;97146.13;;;20.08;38.81
83551;BME280;74617;47.082;15.524;2024-02-04T06:24:27;97163.78;;;20.11;39.26
83551;BME280;74617;47.082;15.524;2024-02-04T06:26:52;97149.81;;;20.12;39.41
83551;BME280;74617;47.082;15.524;2024-02-04T06:29:18;97149.97;;;20.07;40.17
83551;BME280;74617;47.082;15.524;2024-02-04T06:31:46;97159.28;;;20.06;41.68
83551;BME280;74617;47.082;15.524;2024-02-04T06:34:12;97159.13;;;20.03;42.06
83551;BME280;74617;47.082;15.524;2024-02-04T06:36:37;97157.53;;;20.02;41.92
83551;BME280;74617;47.082;15.524;2024-02-04T06:39:03;97156.72;;;20.01;41.28
83551;BME280;74617;47.082;15.524;2024-02-04T06:41:28;97160.59;;;20.00;43.18
83551;BME280;74617;47.082;15.524;2024-02-04T06:43:54;97166.38;;;19.99;43.90
83551;BME280;74617;47.082;15.524;2024-02-04T06:46:26;97170.53;;;19.96;44.29
83551;BME280;74617;47.082;15.524;2024-02-04T06:48:51;97172.78;;;19.94;44.98
83551;BME280;74617;47.082;15.524;2024-02-04T06:51:16;97182.72;;;19.90;43.97
83551;BME280;74617;47.082;15.524;2024-02-04T06:53:42;97202.94;;;19.89;43.15
83551;BME280;74617;47.082;15.524;2024-02-04T06:56:07;97204.25;;;19.91;42.46
83551;BME280;74617;47.082;15.524;2024-02-04T06:58:33;97190.13;;;19.98;40.80
83551;BME280;74617;47.082;15.524;2024-02-04T07:00:58;97189.63;;;19.96;40.92
83551;BME280;74617;47.082;15.524;2024-02-04T07:03:23;97182.91;;;19.93;40.84
83551;BME280;74617;47.082;15.524;2024-02-04T07:05:49;97198.78;;;19.91;40.24
83551;BME280;74617;47.082;15.524;2024-02-04T07:08:14;97190.75;;;19.95;39.33
83551;BME280;74617;47.082;15.524;2024-02-04T07:10:40;97198.44;;;20.02;38.89
83551;BME280;74617;47.082;15.524;2024-02-04T07:13:05;97196.03;;;20.00;38.65
83551;BME280;74617;47.082;15.524;2024-02-04T07:15:31;97204.38;;;19.95;39.34
83551;BME280;74617;47.082;15.524;2024-02-04T07:17:57;97189.16;;;19.94;39.45
83551;BME280;74617;47.082;15.524;2024-02-04T07:20:22;97204.72;;;19.93;39.83
83551;BME280;74617;47.082;15.524;2024-02-04T07:22:47;97206.19;;;19.91;39.80
83551;BME280;74617;47.082;15.524;2024-02-04T07:25:13;97216.75;;;19.92;39.63
83551;BME280;74617;47.082;15.524;2024-02-04T07:27:38;97209.69;;;20.00;39.28
83551;BME280;74617;47.082;15.524;2024-02-04T07:30:04;97211.44;;;20.05;38.88
83551;BME280;74617;47.082;15.524;2024-02-04T07:32:30;97188.16;;;20.07;38.73
83551;BME280;74617;47.082;15.524;2024-02-04T07:34:55;97183.97;;;20.10;38.67
83551;BME280;74617;47.082;15.524;2024-02-04T07:37:20;97197.09;;;20.16;38.71
83551;BME280;74617;47.082;15.524;2024-02-04T07:39:46;97187.50;;;20.19;39.20
83551;BME280;74617;47.082;15.524;2024-02-04T07:42:11;97197.75;;;20.22;39.11
83551;BME280;74617;47.082;15.524;2024-02-04T07:44:37;97193.41;;;20.21;39.21
83551;BME280;74617;47.082;15.524;2024-02-04T07:47:02;97198.19;;;20.24;39.18
83551;BME280;74617;47.082;15.524;2024-02-04T07:49:27;97199.03;;;20.25;39.25
83551;BME280;74617;47.082;15.524;2024-02-04T07:51:53;97203.81;;;20.28;39.05
83551;BME280;74617;47.082;15.524;2024-02-04T07:54:19;97200.75;;;20.29;39.12
83551;BME280;74617;47.082;15.524;2024-02-04T07:56:44;97200.44;;;20.31;39.44
83551;BME280;74617;47.082;15.524;2024-02-04T07:59:10;97204.44;;;20.33;39.58
83551;BME280;74617;47.082;15.524;2024-02-04T08:01:36;97205.25;;;20.34;39.42
83551;BME280;74617;47.082;15.524;2024-02-04T08:04:02;97204.13;;;20.35;39.57
83551;BME280;74617;47.082;15.524;2024-02-04T08:06:27;97195.25;;;20.38;39.43
83551;BME280;74617;47.082;15.524;2024-02-04T08:08:53;97194.97;;;20.39;39.45
83551;BME280;74617;47.082;15.524;2024-02-04T08:11:18;97194.97;;;20.39;39.92
83551;BME280;74617;47.082;15.524;2024-02-04T08:13:44;97189.16;;;20.41;39.96
83551;BME280;74617;47.082;15.524;2024-02-04T08:16:10;97182.59;;;20.42;40.52
83551;BME280;74617;47.082;15.524;2024-02-04T08:18:35;97192.22;;;20.48;39.95
83551;BME280;74617;47.082;15.524;2024-02-04T08:21:01;97188.69;;;20.47;39.96
83551;BME280;74617;47.082;15.524;2024-02-04T08:23:26;97173.91;;;20.48;40.10
83551;BME280;74617;47.082;15.524;2024-02-04T08:25:51;97174.72;;;20.49;40.67
83551;BME280;74617;47.082;15.524;2024-02-04T08:28:17;97168.56;;;20.61;40.88
83551;BME280;74617;47.082;15.524;2024-02-04T08:30:42;97170.00;;;20.58;40.36
83551;BME280;74617;47.082;15.524;2024-02-04T08:33:07;97171.47;;;20.56;39.87
83551;BME280;74617;47.082;15.524;2024-02-04T08:35:34;97183.19;;;20.56;40.13
83551;BME280;74617;47.082;15.524;2024-02-04T08:38:00;97166.81;;;20.56;39.99
83551;BME280;74617;47.082;15.524;2024-02-04T08:40:26;97166.81;;;20.56;40.07
83551;BME280;74617;47.082;15.524;2024-02-04T08:42:51;97175.47;;;20.58;39.99
83551;BME280;74617;47.082;15.524;2024-02-04T08:45:17;97168.03;;;20.67;40.13
83551;BME280;74617;47.082;15.524;2024-02-04T08:47:42;97161.28;;;20.65;40.08
83551;BME280;74617;47.082;15.524;2024-02-04T08:50:08;97151.84;;;20.62;40.03
83551;BME280;74617;47.082;15.524;2024-02-04T08:52:33;97160.84;;;20.63;40.26
83551;BME280;74617;47.082;15.524;2024-02-04T08:54:59;97147.97;;;20.63;40.14
83551;BME280;74617;47.082;15.524;2024-02-04T08:57:25;97160.50;;;20.64;40.20
83551;BME280;74617;47.082;15.524;2024-02-04T08:59:50;97161.00;;;20.66;40.14
83551;BME280;74617;47.082;15.524;2024-02-04T09:02:15;97173.50;;;20.67;39.98
83551;BME280;74617;47.082;15.524;2024-02-04T09:04:41;97167.38;;;20.70;39.81
83551;BME280;74617;47.082;15.524;2024-02-04T09:07:07;97186.81;;;20.69;39.87
83551;BME280;74617;47.082;15.524;2024-02-04T09:09:33;97184.88;;;20.69;39.93
83551;BME280;74617;47.082;15.524;2024-02-04T09:11:58;97160.31;;;20.69;40.04
83551;BME280;74617;47.082;15.524;2024-02-04T09:14:23;97146.66;;;20.69;39.99
83551;BME280;74617;47.082;15.524;2024-02-04T09:16:49;97149.38;;;20.69;39.93
83551;BME280;74617;47.082;15.524;2024-02-04T09:19:14;97155.31;;;20.71;39.49
83551;BME280;74617;47.082;15.524;2024-02-04T09:21:40;97161.25;;;20.73;39.49
83551;BME280;74617;47.082;15.524;2024-02-04T09:24:05;97150.34;;;20.73;39.67
83551;BME280;74617;47.082;15.524;2024-02-04T09:26:31;97152.72;;;20.75;39.23
83551;BME280;74617;47.082;15.524;2024-02-04T09:28:56;97148.88;;;20.76;39.57
83551;BME280;74617;47.082;15.524;2024-02-04T09:31:22;97149.66;;;20.76;39.68
83551;BME280;74617;47.082;15.524;2024-02-04T09:33:47;97153.34;;;20.81;39.56
83551;BME280;74617;47.082;15.524;2024-02-04T09:36:13;97151.34;;;20.90;39.51
83551;BME280;74617;47.082;15.524;2024-02-04T09:38:38;97147.66;;;20.86;39.94
83551;BME280;74617;47.082;15.524;2024-02-04T09:41:04;97154.28;;;20.85;39.37
83551;BME280;74617;47.082;15.524;2024-02-04T09:43:32;97161.81;;;20.88;39.02
83551;BME280;74617;47.082;15.524;2024-02-04T09:45:58;97158.59;;;20.86;39.08
83551;BME280;74617;47.082;15.524;2024-02-04T09:48:25;97145.28;;;20.84;38.83
83551;BME280;74617;47.082;15.524;2024-02-04T09:50:51;97142.09;;;20.82;38.88
83551;BME280;74617;47.082;15.524;2024-02-04T09:53:21;97140.50;;;20.81;38.89
83551;BME280;74617;47.082;15.524;2024-02-04T09:55:54;97129.22;;;20.83;38.78
83551;BME280;74617;47.082;15.524;2024-02-04T09:58:20;97140.16;;;20.83;38.79
83551;BME280;74617;47.082;15.524;2024-02-04T10:00:47;97146.75;;;20.82;38.78
83551;BME280;74617;47.082;15.524;2024-02-04T10:03:12;97147.22;;;20.84;38.83
83551;BME280;74617;47.082;15.524;2024-02-04T10:05:38;97146.75;;;20.82;38.84
83551;BME280;74617;47.082;15.524;2024-02-04T10:08:03;97148.34;;;20.83;38.98
83551;BME280;74617;47.082;15.524;2024-02-04T10:10:29;97146.75;;;20.82;38.88
83551;BME280;74617;47.082;15.524;2024-02-04T10:12:55;97146.75;;;20.82;38.95
83551;BME280;74617;47.082;15.524;2024-02-04T10:15:20;97154.94;;;20.82;39.04
83551;BME280;74617;47.082;15.524;2024-02-04T10:17:46;97149.81;;;20.80;38.65
83551;BME280;74617;47.082;15.524;2024-02-04T10:20:12;97149.81;;;20.80;38.95
83551;BME280;74617;47.082;15.524;2024-02-04T10:22:37;97149.81;;;20.80;39.00
83551;BME280;74617;47.082;15.524;2024-02-04T10:25:10;97141.94;;;20.79;38.90
83551;BME280;74617;47.082;15.524;2024-02-04T10:27:39;97136.81;;;20.77;38.60
83551;BME280;74617;47.082;15.524;2024-02-04T10:30:05;97144.22;;;20.76;38.54
83551;BME280;74617;47.082;15.524;2024-02-04T10:32:31;97132.47;;;20.76;38.74
83551;BME280;74617;47.082;15.524;2024-02-04T10:34:57;97121.56;;;20.76;39.16
83551;BME280;74617;47.082;15.524;2024-02-04T10:37:23;97121.56;;;20.76;38.61
83551;BME280;74617;47.082;15.524;2024-02-04T10:39:49;97104.84;;;20.77;38.51
83551;BME280;74617;47.082;15.524;2024-02-04T10:42:15;97111.91;;;20.79;38.44
83551;BME280;74617;47.082;15.524;2024-02-04T10:44:45;97107.72;;;20.81;38.66
83551;BME280;74617;47.082;15.524;2024-02-04T10:47:16;97105.00;;;20.81;38.58
83551;BME280;74617;47.082;15.524;2024-02-04T10:49:51;97103.84;;;20.82;38.38
83551;BME280;74617;47.082;15.524;2024-02-04T10:52:20;97100.31;;;20.82;38.41
83551;BME280;74617;47.082;15.524;2024-02-04T10:54:46;97096.47;;;20.83;38.72
83551;BME280;74617;47.082;15.524;2024-02-04T10:57:17;97097.25;;;20.83;38.40
83551;BME280;74617;47.082;15.524;2024-02-04T10:59:47;97088.41;;;20.86;38.63
83551;BME280;74617;47.082;15.524;2024-02-04T11:02:15;97081.00;;;20.87;38.89
83551;BME280;74617;47.082;15.524;2024-02-04T11:04:42;97096.72;;;20.90;38.56
83551;BME280;74617;47.082;15.524;2024-02-04T11:07:10;97084.22;;;20.89;38.52
83551;BME280;74617;47.082;15.524;2024-02-04T11:09:39;97080.00;;;20.91;38.52
83551;BME280;74617;47.082;15.524;2024-02-04T11:12:09;97091.72;;;20.92;38.72
83551;BME280;74617;47.082;15.524;2024-02-04T11:14:37;97096.03;;;20.93;38.59
83551;BME280;74617;47.082;15.524;2024-02-04T11:20:18;97076.53;;;21.03;39.01
83551;BME280;74617;47.082;15.524;2024-02-04T11:28:01;97065.59;;;21.03;39.39
83551;BME280;74617;47.082;15.524;2024-02-04T11:30:26;97059.81;;;21.04;39.55
83551;BME280;74617;47.082;15.524;2024-02-04T11:32:52;97047.88;;;21.09;39.11
83551;BME280;74617;47.082;15.524;2024-02-04T11:35:19;97037.06;;;21.13;39.30
83551;BME280;74617;47.082;15.524;2024-02-04T11:37:46;97040.28;;;21.15;39.38
83551;BME280;74617;47.082;15.524;2024-02-04T11:40:15;97052.47;;;21.17;39.45
83551;BME280;74617;47.082;15.524;2024-02-04T11:42:42;97036.53;;;21.19;39.34
83551;BME280;74617;47.082;15.524;2024-02-04T11:45:12;97027.31;;;21.24;39.13
83551;BME280;74617;47.082;15.524;2024-02-04T11:47:38;97028.28;;;21.28;39.32
83551;BME280;74617;47.082;15.524;2024-02-04T11:50:05;97028.75;;;21.30;38.98
83551;BME280;74617;47.082;15.524;2024-02-04T11:52:30;97032.72;;;21.33;39.31
83551;BME280;74617;47.082;15.524;2024-02-04T11:54:56;97039.47;;;21.35;39.17
83551;BME280;74617;47.082;15.524;2024-02-04T11:57:22;97016.91;;;21.38;39.31
83551;BME280;74617;47.082;15.524;2024-02-04T11:59:48;97021.72;;;21.41;39.14
83551;BME280;74617;47.082;15.524;2024-02-04T12:02:17;97013.97;;;21.43;38.88
83551;BME280;74617;47.082;15.524;2024-02-04T12:04:45;97012.38;;;21.54;39.01
83551;BME280;74617;47.082;15.524;2024-02-04T12:07:13;97013.53;;;21.53;39.04
83551;BME280;74617;47.082;15.524;2024-02-04T12:09:39;97006.91;;;21.54;39.00
83551;BME280;74617;47.082;15.524;2024-02-04T12:12:05;97000.78;;;21.57;38.86
83551;BME280;74617;47.082;15.524;2024-02-04T12:14:31;96998.94;;;21.62;38.69
83551;BME280;74617;47.082;15.524;2024-02-04T12:16:57;96994.97;;;21.71;39.39
83551;BME280;74617;47.082;15.524;2024-02-04T12:19:23;96993.50;;;21.74;40.18
83551;BME280;74617;47.082;15.524;2024-02-04T12:21:48;96991.22;;;21.76;40.14
83551;BME280;74617;47.082;15.524;2024-02-04T12:24:14;96978.34;;;21.76;40.24
83551;BME280;74617;47.082;15.524;2024-02-04T12:26:40;96979.59;;;21.79;40.11
83551;BME280;74617;47.082;15.524;2024-02-04T12:29:06;96978.09;;;21.81;40.00
83551;BME280;74617;47.082;15.524;2024-02-04T12:31:32;96966.84;;;21.83;40.25
83551;BME280;74617;47.082;15.524;2024-02-04T12:33:59;96964.56;;;21.85;40.32
83551;BME280;74617;47.082;15.524;2024-02-04T12:36:31;96969.31;;;21.88;40.33
83551;BME280;74617;47.082;15.524;2024-02-04T12:38:59;96970.91;;;21.89;39.91
83551;BME280;74617;47.082;15.524;2024-02-04T12:41:26;96978.81;;;21.91;39.76
83551;BME280;74617;47.082;15.524;2024-02-04T12:43:54;96978.09;;;21.94;39.91
83551;BME280;74617;47.082;15.524;2024-02-04T12:46:20;96982.00;;;22.05;39.84
83551;BME280;74617;47.082;15.524;2024-02-04T12:48:53;96976.88;;;22.03;39.56
83551;BME280;74617;47.082;15.524;2024-02-04T12:51:29;96969.78;;;22.02;39.62
83551;BME280;74617;47.082;15.524;2024-02-04T12:59:08;96951.78;;;22.14;40.71
83551;BME280;74617;47.082;15.524;2024-02-04T13:01:35;96964.09;;;22.20;40.79